sensor_id;sensor_type;location;lat;lon;timestamp;P1;durP1;ratioP1;P2;durP2;ratioP2
67562;SDS011;54392;53.556;49.214;2022-08-01T00:00:37;3.53;;;2.87;;
67562;SDS011;54392;53.556;49.214;2022-08-01T00:03:06;4.65;;;3.30;;
67562;SDS011;54392;53.556;49.214;2022-08-01T00:05:32;5.30;;;3.53;;
67562;SDS011;54392;53.556;49.214;2022-08-01T00:07:58;3.03;;;2.83;;
67562;SDS011;54392;53.556;49.214;2022-08-01T00:10:24;2.62;;;2.42;;
67562;SDS011;54392;53.556;49.214;2022-08-01T00:12:59;8.45;;;4.03;;
67562;SDS011;54392;53.556;49.214;2022-08-01T00:15:28;3.08;;;2.78;;
67562;SDS011;54392;53.556;49.214;2022-08-01T00:17:57;3.45;;;2.70;;
67562;SDS011;54392;53.556;49.214;2022-08-01T00:20:26;3.40;;;2.92;;
67562;SDS011;54392;53.556;49.214;2022-08-01T00:22:55;4.45;;;3.95;;
67562;SDS011;54392;53.556;49.214;2022-08-01T00:25:21;3.42;;;3.12;;
67562;SDS011;54392;53.556;49.214;2022-08-01T00:27:54;12.82;;;3.78;;
67562;SDS011;54392;53.556;49.214;2022-08-01T00:30:20;7.78;;;4.43;;
67562;SDS011;54392;53.556;49.214;2022-08-01T00:32:46;4.22;;;3.60;;
67562;SDS011;54392;53.556;49.214;2022-08-01T00:35:13;4.03;;;3.72;;
67562;SDS011;54392;53.556;49.214;2022-08-01T00:37:41;4.12;;;3.50;;
67562;SDS011;54392;53.556;49.214;2022-08-01T00:40:12;3.62;;;3.33;;
67562;SDS011;54392;53.556;49.214;2022-08-01T00:42:44;7.68;;;3.08;;
67562;SDS011;54392;53.556;49.214;2022-08-01T00:45:13;3.50;;;2.67;;
67562;SDS011;54392;53.556;49.214;2022-08-01T00:47:39;3.25;;;2.95;;
67562;SDS011;54392;53.556;49.214;2022-08-01T00:50:05;4.45;;;3.65;;
67562;SDS011;54392;53.556;49.214;2022-08-01T00:52:35;7.47;;;3.67;;
67562;SDS011;54392;53.556;49.214;2022-08-01T00:55:04;3.10;;;2.87;;
67562;SDS011;54392;53.556;49.214;2022-08-01T00:57:34;2.92;;;2.72;;
67562;SDS011;54392;53.556;49.214;2022-08-01T01:00:05;4.45;;;4.05;;
67562;SDS011;54392;53.556;49.214;2022-08-01T01:02:32;3.90;;;3.20;;
67562;SDS011;54392;53.556;49.214;2022-08-01T01:05:02;5.45;;;4.10;;
67562;SDS011;54392;53.556;49.214;2022-08-01T01:07:38;12.45;;;5.03;;
67562;SDS011;54392;53.556;49.214;2022-08-01T01:13:45;3.05;;;2.85;;
67562;SDS011;54392;53.556;49.214;2022-08-01T01:16:17;4.55;;;3.67;;
67562;SDS011;54392;53.556;49.214;2022-08-01T01:18:51;4.20;;;3.75;;
67562;SDS011;54392;53.556;49.214;2022-08-01T01:26:45;4.12;;;3.72;;
67562;SDS011;54392;53.556;49.214;2022-08-01T01:29:23;3.60;;;3.30;;
67562;SDS011;54392;53.556;49.214;2022-08-01T01:32:04;3.47;;;3.17;;
67562;SDS011;54392;53.556;49.214;2022-08-01T01:34:35;9.25;;;4.62;;
67562;SDS011;54392;53.556;49.214;2022-08-01T01:37:08;3.30;;;3.00;;
67562;SDS011;54392;53.556;49.214;2022-08-01T01:39:36;4.28;;;3.25;;
67562;SDS011;54392;53.556;49.214;2022-08-01T01:42:07;4.22;;;3.55;;
67562;SDS011;54392;53.556;49.214;2022-08-01T01:44:34;3.35;;;3.08;;
67562;SDS011;54392;53.556;49.214;2022-08-01T01:47:07;3.85;;;3.45;;
67562;SDS011;54392;53.556;49.214;2022-08-01T01:49:33;4.03;;;3.72;;
67562;SDS011;54392;53.556;49.214;2022-08-01T01:52:04;5.28;;;2.78;;
67562;SDS011;54392;53.556;49.214;2022-08-01T01:54:36;3.28;;;2.97;;
67562;SDS011;54392;53.556;49.214;2022-08-01T01:57:05;8.48;;;3.90;;
67562;SDS011;54392;53.556;49.214;2022-08-01T01:59:36;4.15;;;3.75;;
67562;SDS011;54392;53.556;49.214;2022-08-01T02:02:08;7.72;;;3.65;;
67562;SDS011;54392;53.556;49.214;2022-08-01T02:04:40;2.92;;;2.72;;
67562;SDS011;54392;53.556;49.214;2022-08-01T02:07:15;15.32;;;4.03;;
67562;SDS011;54392;53.556;49.214;2022-08-01T02:09:47;3.50;;;3.20;;
67562;SDS011;54392;53.556;49.214;2022-08-01T02:12:16;5.85;;;4.87;;
67562;SDS011;54392;53.556;49.214;2022-08-01T02:14:50;5.10;;;4.65;;
67562;SDS011;54392;53.556;49.214;2022-08-01T02:17:19;3.70;;;3.40;;
67562;SDS011;54392;53.556;49.214;2022-08-01T02:19:54;4.72;;;4.32;;
67562;SDS011;54392;53.556;49.214;2022-08-01T02:22:36;8.48;;;3.75;;
67562;SDS011;54392;53.556;49.214;2022-08-01T02:25:17;4.10;;;3.78;;
67562;SDS011;54392;53.556;49.214;2022-08-01T02:28:07;3.17;;;2.92;;
67562;SDS011;54392;53.556;49.214;2022-08-01T02:30:41;3.62;;;3.33;;
67562;SDS011;54392;53.556;49.214;2022-08-01T02:33:20;3.90;;;3.60;;
67562;SDS011;54392;53.556;49.214;2022-08-01T02:35:52;5.00;;;3.33;;
67562;SDS011;54392;53.556;49.214;2022-08-01T02:38:22;5.62;;;4.90;;
67562;SDS011;54392;53.556;49.214;2022-08-01T02:40:52;5.43;;;4.87;;
67562;SDS011;54392;53.556;49.214;2022-08-01T02:43:23;5.28;;;4.87;;
67562;SDS011;54392;53.556;49.214;2022-08-01T02:45:55;5.30;;;4.90;;
67562;SDS011;54392;53.556;49.214;2022-08-01T02:48:27;3.70;;;3.40;;
67562;SDS011;54392;53.556;49.214;2022-08-01T02:51:05;5.53;;;5.03;;
67562;SDS011;54392;53.556;49.214;2022-08-01T02:53:40;5.03;;;4.55;;
67562;SDS011;54392;53.556;49.214;2022-08-01T02:56:07;4.45;;;4.15;;
67562;SDS011;54392;53.556;49.214;2022-08-01T02:58:35;4.40;;;3.83;;
67562;SDS011;54392;53.556;49.214;2022-08-01T03:01:04;12.93;;;4.87;;
67562;SDS011;54392;53.556;49.214;2022-08-01T03:03:31;4.40;;;3.83;;
67562;SDS011;54392;53.556;49.214;2022-08-01T03:06:04;5.30;;;4.80;;
67562;SDS011;54392;53.556;49.214;2022-08-01T03:08:30;9.32;;;5.20;;
67562;SDS011;54392;53.556;49.214;2022-08-01T03:11:02;7.57;;;4.32;;
67562;SDS011;54392;53.556;49.214;2022-08-01T03:13:34;7.28;;;4.25;;
67562;SDS011;54392;53.556;49.214;2022-08-01T03:16:08;8.35;;;4.45;;
67562;SDS011;54392;53.556;49.214;2022-08-01T03:18:40;4.95;;;4.55;;
67562;SDS011;54392;53.556;49.214;2022-08-01T03:21:14;5.00;;;4.25;;
67562;SDS011;54392;53.556;49.214;2022-08-01T03:23:45;11.12;;;4.65;;
67562;SDS011;54392;53.556;49.214;2022-08-01T03:26:14;18.60;;;5.07;;
67562;SDS011;54392;53.556;49.214;2022-08-01T03:28:46;4.95;;;4.55;;
67562;SDS011;54392;53.556;49.214;2022-08-01T03:31:13;5.93;;;4.65;;
67562;SDS011;54392;53.556;49.214;2022-08-01T03:33:43;8.18;;;5.97;;
67562;SDS011;54392;53.556;49.214;2022-08-01T03:36:09;4.60;;;4.05;;
67562;SDS011;54392;53.556;49.214;2022-08-01T03:38:42;5.62;;;4.82;;
67562;SDS011;54392;53.556;49.214;2022-08-01T03:41:13;5.22;;;4.43;;
67562;SDS011;54392;53.556;49.214;2022-08-01T03:43:45;6.75;;;6.05;;
67562;SDS011;54392;53.556;49.214;2022-08-01T03:46:33;9.40;;;4.22;;
67562;SDS011;54392;53.556;49.214;2022-08-01T03:49:03;17.50;;;5.70;;
67562;SDS011;54392;53.556;49.214;2022-08-01T03:51:36;6.43;;;5.90;;
67562;SDS011;54392;53.556;49.214;2022-08-01T03:54:03;8.63;;;6.25;;
67562;SDS011;54392;53.556;49.214;2022-08-01T03:56:33;8.48;;;4.50;;
67562;SDS011;54392;53.556;49.214;2022-08-01T03:59:05;10.73;;;5.62;;
67562;SDS011;54392;53.556;49.214;2022-08-01T04:01:34;11.90;;;5.35;;
67562;SDS011;54392;53.556;49.214;2022-08-01T04:04:07;6.17;;;5.67;;
67562;SDS011;54392;53.556;49.214;2022-08-01T04:06:39;8.77;;;5.00;;
67562;SDS011;54392;53.556;49.214;2022-08-01T04:09:07;5.72;;;5.28;;
67562;SDS011;54392;53.556;49.214;2022-08-01T04:11:36;10.50;;;6.15;;
67562;SDS011;54392;53.556;49.214;2022-08-01T04:14:11;12.60;;;6.53;;
67562;SDS011;54392;53.556;49.214;2022-08-01T04:16:37;6.82;;;5.18;;
67562;SDS011;54392;53.556;49.214;2022-08-01T04:19:06;6.28;;;5.78;;
67562;SDS011;54392;53.556;49.214;2022-08-01T04:21:36;7.97;;;6.32;;
67562;SDS011;54392;53.556;49.214;2022-08-01T04:24:07;5.72;;;5.18;;
67562;SDS011;54392;53.556;49.214;2022-08-01T04:26:47;5.68;;;5.18;;
67562;SDS011;54392;53.556;49.214;2022-08-01T04:29:23;5.90;;;5.40;;
67562;SDS011;54392;53.556;49.214;2022-08-01T04:31:54;6.90;;;5.78;;
67562;SDS011;54392;53.556;49.214;2022-08-01T04:34:28;6.40;;;5.53;;
67562;SDS011;54392;53.556;49.214;2022-08-01T04:37:01;8.05;;;6.55;;
67562;SDS011;54392;53.556;49.214;2022-08-01T04:39:31;23.65;;;7.45;;
67562;SDS011;54392;53.556;49.214;2022-08-01T04:42:05;11.20;;;7.50;;
67562;SDS011;54392;53.556;49.214;2022-08-01T04:44:32;15.00;;;5.93;;
67562;SDS011;54392;53.556;49.214;2022-08-01T04:46:59;10.32;;;6.20;;
67562;SDS011;54392;53.556;49.214;2022-08-01T04:49:33;6.03;;;5.53;;
67562;SDS011;54392;53.556;49.214;2022-08-01T04:52:05;7.25;;;6.55;;
67562;SDS011;54392;53.556;49.214;2022-08-01T04:54:34;9.75;;;8.20;;
67562;SDS011;54392;53.556;49.214;2022-08-01T10:12:09;8.85;;;6.40;;
67562;SDS011;54392;53.556;49.214;2022-08-01T10:14:39;6.60;;;6.00;;
67562;SDS011;54392;53.556;49.214;2022-08-01T10:17:12;10.43;;;7.22;;
67562;SDS011;54392;53.556;49.214;2022-08-01T10:19:46;10.55;;;8.10;;
67562;SDS011;54392;53.556;49.214;2022-08-01T10:22:18;13.95;;;6.78;;
67562;SDS011;54392;53.556;49.214;2022-08-01T10:24:52;8.00;;;6.22;;
67562;SDS011;54392;53.556;49.214;2022-08-01T10:27:23;10.43;;;9.30;;
67562;SDS011;54392;53.556;49.214;2022-08-01T10:29:57;11.50;;;7.80;;
67562;SDS011;54392;53.556;49.214;2022-08-01T10:32:33;8.85;;;7.37;;
67562;SDS011;54392;53.556;49.214;2022-08-01T10:35:01;18.37;;;8.02;;
67562;SDS011;54392;53.556;49.214;2022-08-01T10:37:28;13.35;;;9.25;;
67562;SDS011;54392;53.556;49.214;2022-08-01T10:39:54;13.70;;;6.85;;
67562;SDS011;54392;53.556;49.214;2022-08-01T10:42:21;9.20;;;7.28;;
67562;SDS011;54392;53.556;49.214;2022-08-01T10:44:49;12.10;;;8.05;;
67562;SDS011;54392;53.556;49.214;2022-08-01T10:47:23;7.28;;;6.10;;
67562;SDS011;54392;53.556;49.214;2022-08-01T10:50:05;8.65;;;6.70;;
67562;SDS011;54392;53.556;49.214;2022-08-01T10:55:56;11.73;;;6.45;;
67562;SDS011;54392;53.556;49.214;2022-08-01T10:58:27;9.50;;;6.25;;
67562;SDS011;54392;53.556;49.214;2022-08-01T11:09:03;6.75;;;6.03;;
67562;SDS011;54392;53.556;49.214;2022-08-01T11:11:57;15.57;;;6.57;;
67562;SDS011;54392;53.556;49.214;2022-08-01T11:14:27;6.97;;;5.57;;
67562;SDS011;54392;53.556;49.214;2022-08-01T11:20:19;10.00;;;5.85;;
67562;SDS011;54392;53.556;49.214;2022-08-01T11:25:26;5.43;;;4.90;;
67562;SDS011;54392;53.556;49.214;2022-08-01T11:28:17;7.45;;;4.97;;
67562;SDS011;54392;53.556;49.214;2022-08-01T11:38:41;16.15;;;6.70;;
67562;SDS011;54392;53.556;49.214;2022-08-01T11:41:21;8.55;;;6.15;;
67562;SDS011;54392;53.556;49.214;2022-08-01T11:44:07;5.07;;;4.55;;
67562;SDS011;54392;53.556;49.214;2022-08-01T11:52:23;5.93;;;5.22;;
67562;SDS011;54392;53.556;49.214;2022-08-01T11:54:51;5.68;;;4.68;;
67562;SDS011;54392;53.556;49.214;2022-08-01T11:57:24;5.80;;;5.03;;
67562;SDS011;54392;53.556;49.214;2022-08-01T12:00:04;6.07;;;5.12;;
67562;SDS011;54392;53.556;49.214;2022-08-01T12:02:44;12.57;;;6.05;;
67562;SDS011;54392;53.556;49.214;2022-08-01T12:05:12;5.25;;;4.50;;
67562;SDS011;54392;53.556;49.214;2022-08-01T12:07:40;6.53;;;5.93;;
67562;SDS011;54392;53.556;49.214;2022-08-01T12:10:08;12.52;;;5.95;;
67562;SDS011;54392;53.556;49.214;2022-08-01T12:12:40;7.60;;;5.82;;
67562;SDS011;54392;53.556;49.214;2022-08-01T12:18:44;4.57;;;4.18;;
67562;SDS011;54392;53.556;49.214;2022-08-01T12:21:10;4.47;;;4.12;;
67562;SDS011;54392;53.556;49.214;2022-08-01T12:23:36;4.37;;;3.87;;
67562;SDS011;54392;53.556;49.214;2022-08-01T12:26:05;4.55;;;4.12;;
67562;SDS011;54392;53.556;49.214;2022-08-01T12:28:52;4.35;;;3.87;;
67562;SDS011;54392;53.556;49.214;2022-08-01T12:31:18;8.57;;;4.32;;
67562;SDS011;54392;53.556;49.214;2022-08-01T12:34:24;7.50;;;3.85;;
67562;SDS011;54392;53.556;49.214;2022-08-01T12:37:01;4.80;;;3.85;;
67562;SDS011;54392;53.556;49.214;2022-08-01T12:39:33;4.25;;;3.85;;
67562;SDS011;54392;53.556;49.214;2022-08-01T12:42:14;4.00;;;3.65;;
67562;SDS011;54392;53.556;49.214;2022-08-01T12:44:44;5.87;;;4.68;;
67562;SDS011;54392;53.556;49.214;2022-08-01T12:47:17;5.80;;;5.00;;
67562;SDS011;54392;53.556;49.214;2022-08-01T12:49:45;6.12;;;5.03;;
67562;SDS011;54392;53.556;49.214;2022-08-01T12:52:16;5.70;;;4.05;;
67562;SDS011;54392;53.556;49.214;2022-08-01T12:57:37;4.55;;;3.25;;
67562;SDS011;54392;53.556;49.214;2022-08-01T13:00:06;7.37;;;2.92;;
67562;SDS011;54392;53.556;49.214;2022-08-01T13:02:40;4.82;;;2.90;;
67562;SDS011;54392;53.556;49.214;2022-08-01T13:05:06;3.47;;;3.10;;
67562;SDS011;54392;53.556;49.214;2022-08-01T13:07:40;3.97;;;3.37;;
67562;SDS011;54392;53.556;49.214;2022-08-01T13:10:25;6.45;;;3.62;;
67562;SDS011;54392;53.556;49.214;2022-08-01T13:12:59;3.60;;;3.30;;
67562;SDS011;54392;53.556;49.214;2022-08-01T13:15:29;4.60;;;3.67;;
67562;SDS011;54392;53.556;49.214;2022-08-01T13:20:50;5.57;;;3.10;;
67562;SDS011;54392;53.556;49.214;2022-08-01T13:23:17;2.78;;;2.55;;
67562;SDS011;54392;53.556;49.214;2022-08-01T13:25:53;3.62;;;3.33;;
67562;SDS011;54392;53.556;49.214;2022-08-01T13:28:24;5.03;;;3.70;;
67562;SDS011;54392;53.556;49.214;2022-08-01T13:30:54;4.05;;;2.85;;
67562;SDS011;54392;53.556;49.214;2022-08-01T13:33:25;7.28;;;4.75;;
67562;SDS011;54392;53.556;49.214;2022-08-01T13:36:08;2.75;;;2.55;;
67562;SDS011;54392;53.556;49.214;2022-08-01T13:38:39;7.82;;;4.10;;
67562;SDS011;54392;53.556;49.214;2022-08-01T13:41:27;3.17;;;2.80;;
67562;SDS011;54392;53.556;49.214;2022-08-01T13:43:53;3.40;;;2.37;;
67562;SDS011;54392;53.556;49.214;2022-08-01T13:46:20;3.90;;;2.92;;
67562;SDS011;54392;53.556;49.214;2022-08-01T13:48:52;8.13;;;2.78;;
67562;SDS011;54392;53.556;49.214;2022-08-01T13:51:18;3.90;;;3.33;;
67562;SDS011;54392;53.556;49.214;2022-08-01T13:53:44;5.68;;;2.70;;
67562;SDS011;54392;53.556;49.214;2022-08-01T13:56:15;2.87;;;2.60;;
67562;SDS011;54392;53.556;49.214;2022-08-01T13:58:47;4.90;;;3.78;;
67562;SDS011;54392;53.556;49.214;2022-08-01T14:01:18;3.12;;;2.67;;
67562;SDS011;54392;53.556;49.214;2022-08-01T14:03:47;3.95;;;3.03;;
67562;SDS011;54392;53.556;49.214;2022-08-01T14:06:16;2.90;;;2.70;;
67562;SDS011;54392;53.556;49.214;2022-08-01T14:08:49;5.62;;;2.87;;
67562;SDS011;54392;53.556;49.214;2022-08-01T14:11:16;4.55;;;2.87;;
67562;SDS011;54392;53.556;49.214;2022-08-01T14:13:45;2.00;;;1.87;;
67562;SDS011;54392;53.556;49.214;2022-08-01T14:16:11;7.00;;;2.70;;
67562;SDS011;54392;53.556;49.214;2022-08-01T14:18:38;4.25;;;3.55;;
67562;SDS011;54392;53.556;49.214;2022-08-01T14:21:04;7.60;;;3.65;;
67562;SDS011;54392;53.556;49.214;2022-08-01T14:23:30;3.35;;;2.62;;
67562;SDS011;54392;53.556;49.214;2022-08-01T14:26:02;9.25;;;3.65;;
67562;SDS011;54392;53.556;49.214;2022-08-01T14:28:28;9.63;;;4.07;;
67562;SDS011;54392;53.556;49.214;2022-08-01T14:30:55;6.05;;;4.28;;
67562;SDS011;54392;53.556;49.214;2022-08-01T14:33:27;4.07;;;3.40;;
67562;SDS011;54392;53.556;49.214;2022-08-01T14:35:58;4.53;;;2.87;;
67562;SDS011;54392;53.556;49.214;2022-08-01T14:38:27;2.50;;;2.10;;
67562;SDS011;54392;53.556;49.214;2022-08-01T14:41:07;4.45;;;2.95;;
67562;SDS011;54392;53.556;49.214;2022-08-01T14:43:36;4.05;;;3.40;;
67562;SDS011;54392;53.556;49.214;2022-08-01T14:46:02;3.45;;;3.15;;
67562;SDS011;54392;53.556;49.214;2022-08-01T14:48:29;5.18;;;3.25;;
67562;SDS011;54392;53.556;49.214;2022-08-01T14:50:56;4.65;;;3.53;;
67562;SDS011;54392;53.556;49.214;2022-08-01T14:53:22;11.88;;;2.80;;
67562;SDS011;54392;53.556;49.214;2022-08-01T14:55:52;2.60;;;2.40;;
67562;SDS011;54392;53.556;49.214;2022-08-01T14:58:20;3.65;;;2.97;;
67562;SDS011;54392;53.556;49.214;2022-08-01T15:00:47;3.28;;;2.60;;
67562;SDS011;54392;53.556;49.214;2022-08-01T15:03:16;4.10;;;3.55;;
67562;SDS011;54392;53.556;49.214;2022-08-01T15:05:44;4.97;;;3.00;;
67562;SDS011;54392;53.556;49.214;2022-08-01T15:08:13;3.92;;;3.50;;
67562;SDS011;54392;53.556;49.214;2022-08-01T15:10:42;4.45;;;3.90;;
67562;SDS011;54392;53.556;49.214;2022-08-01T15:13:09;2.90;;;2.58;;
67562;SDS011;54392;53.556;49.214;2022-08-01T15:15:35;2.92;;;2.12;;
67562;SDS011;54392;53.556;49.214;2022-08-01T15:18:01;3.17;;;2.90;;
67562;SDS011;54392;53.556;49.214;2022-08-01T15:20:36;2.83;;;2.60;;
67562;SDS011;54392;53.556;49.214;2022-08-01T15:23:02;9.82;;;2.92;;
67562;SDS011;54392;53.556;49.214;2022-08-01T15:25:28;5.85;;;3.45;;
67562;SDS011;54392;53.556;49.214;2022-08-01T15:27:55;3.83;;;3.40;;
67562;SDS011;54392;53.556;49.214;2022-08-01T15:30:24;6.12;;;4.85;;
67562;SDS011;54392;53.556;49.214;2022-08-01T15:33:00;6.07;;;3.95;;
67562;SDS011;54392;53.556;49.214;2022-08-01T15:35:38;10.05;;;3.28;;
67562;SDS011;54392;53.556;49.214;2022-08-01T15:38:04;9.45;;;2.97;;
67562;SDS011;54392;53.556;49.214;2022-08-01T15:40:30;5.72;;;3.08;;
67562;SDS011;54392;53.556;49.214;2022-08-01T15:43:04;11.25;;;3.47;;
67562;SDS011;54392;53.556;49.214;2022-08-01T15:45:36;3.65;;;3.37;;
67562;SDS011;54392;53.556;49.214;2022-08-01T15:48:02;4.85;;;3.53;;
67562;SDS011;54392;53.556;49.214;2022-08-01T15:50:28;4.40;;;2.97;;
67562;SDS011;54392;53.556;49.214;2022-08-01T15:52:55;3.55;;;2.60;;
67562;SDS011;54392;53.556;49.214;2022-08-01T15:55:21;6.40;;;3.85;;
67562;SDS011;54392;53.556;49.214;2022-08-01T15:57:49;4.12;;;3.10;;
67562;SDS011;54392;53.556;49.214;2022-08-01T16:00:16;3.58;;;3.28;;
67562;SDS011;54392;53.556;49.214;2022-08-01T16:02:42;4.40;;;3.42;;
67562;SDS011;54392;53.556;49.214;2022-08-01T16:05:08;8.07;;;3.67;;
67562;SDS011;54392;53.556;49.214;2022-08-01T16:07:40;9.50;;;4.28;;
67562;SDS011;54392;53.556;49.214;2022-08-01T16:12:40;3.90;;;3.50;;
67562;SDS011;54392;53.556;49.214;2022-08-01T16:15:07;8.07;;;4.25;;
67562;SDS011;54392;53.556;49.214;2022-08-01T16:17:42;9.18;;;4.25;;
67562;SDS011;54392;53.556;49.214;2022-08-01T16:20:17;8.88;;;4.10;;
67562;SDS011;54392;53.556;49.214;2022-08-01T16:22:49;5.53;;;3.78;;
67562;SDS011;54392;53.556;49.214;2022-08-01T16:25:21;5.65;;;3.20;;
67562;SDS011;54392;53.556;49.214;2022-08-01T16:27:52;3.47;;;2.83;;
67562;SDS011;54392;53.556;49.214;2022-08-01T16:30:18;3.67;;;3.05;;
67562;SDS011;54392;53.556;49.214;2022-08-01T16:32:50;9.10;;;2.95;;
67562;SDS011;54392;53.556;49.214;2022-08-01T16:35:23;4.22;;;3.83;;
67562;SDS011;54392;53.556;49.214;2022-08-01T16:37:52;3.85;;;2.67;;
67562;SDS011;54392;53.556;49.214;2022-08-01T16:40:18;7.32;;;3.45;;
67562;SDS011;54392;53.556;49.214;2022-08-01T16:42:53;5.45;;;3.37;;
67562;SDS011;54392;53.556;49.214;2022-08-01T16:45:22;2.80;;;2.58;;
67562;SDS011;54392;53.556;49.214;2022-08-01T16:47:54;12.50;;;2.92;;
67562;SDS011;54392;53.556;49.214;2022-08-01T16:50:26;4.05;;;3.58;;
67562;SDS011;54392;53.556;49.214;2022-08-01T16:52:52;6.80;;;4.10;;
67562;SDS011;54392;53.556;49.214;2022-08-01T16:55:24;4.97;;;4.57;;
67562;SDS011;54392;53.556;49.214;2022-08-01T17:00:16;8.52;;;6.00;;
67562;SDS011;54392;53.556;49.214;2022-08-01T17:02:44;10.32;;;5.57;;
67562;SDS011;54392;53.556;49.214;2022-08-01T17:05:13;7.05;;;4.85;;
67562;SDS011;54392;53.556;49.214;2022-08-01T17:07:42;8.02;;;5.85;;
67562;SDS011;54392;53.556;49.214;2022-08-01T17:10:11;8.15;;;7.10;;
67562;SDS011;54392;53.556;49.214;2022-08-01T17:12:49;12.32;;;5.82;;
67562;SDS011;54392;53.556;49.214;2022-08-01T17:15:18;8.52;;;5.85;;
67562;SDS011;54392;53.556;49.214;2022-08-01T17:17:44;5.45;;;4.18;;
67562;SDS011;54392;53.556;49.214;2022-08-01T17:20:13;11.15;;;5.90;;
67562;SDS011;54392;53.556;49.214;2022-08-01T17:22:40;14.23;;;6.75;;
67562;SDS011;54392;53.556;49.214;2022-08-01T17:25:12;5.12;;;4.62;;
67562;SDS011;54392;53.556;49.214;2022-08-01T17:27:42;5.70;;;4.43;;
67562;SDS011;54392;53.556;49.214;2022-08-01T17:30:09;20.55;;;5.65;;
67562;SDS011;54392;53.556;49.214;2022-08-01T17:32:43;6.47;;;5.68;;
67562;SDS011;54392;53.556;49.214;2022-08-01T17:35:10;3.35;;;2.92;;
67562;SDS011;54392;53.556;49.214;2022-08-01T17:37:40;8.25;;;5.00;;
67562;SDS011;54392;53.556;49.214;2022-08-01T17:40:11;6.03;;;5.15;;
67562;SDS011;54392;53.556;49.214;2022-08-01T17:42:41;4.53;;;4.12;;
67562;SDS011;54392;53.556;49.214;2022-08-01T17:45:11;5.62;;;4.35;;
67562;SDS011;54392;53.556;49.214;2022-08-01T17:47:42;6.37;;;4.12;;
67562;SDS011;54392;53.556;49.214;2022-08-01T17:50:13;6.20;;;5.60;;
67562;SDS011;54392;53.556;49.214;2022-08-01T17:52:45;9.60;;;6.75;;
67562;SDS011;54392;53.556;49.214;2022-08-01T17:55:19;5.70;;;3.87;;
67562;SDS011;54392;53.556;49.214;2022-08-01T17:58:03;9.98;;;5.18;;
67562;SDS011;54392;53.556;49.214;2022-08-01T18:00:53;10.00;;;5.10;;
67562;SDS011;54392;53.556;49.214;2022-08-01T18:03:27;11.63;;;4.60;;
67562;SDS011;54392;53.556;49.214;2022-08-01T18:05:58;5.15;;;3.95;;
67562;SDS011;54392;53.556;49.214;2022-08-01T18:08:30;4.32;;;3.55;;
67562;SDS011;54392;53.556;49.214;2022-08-01T18:10:56;7.35;;;3.70;;
67562;SDS011;54392;53.556;49.214;2022-08-01T18:13:24;5.72;;;4.32;;
67562;SDS011;54392;53.556;49.214;2022-08-01T18:15:50;7.72;;;4.28;;
67562;SDS011;54392;53.556;49.214;2022-08-01T18:18:17;15.70;;;5.72;;
67562;SDS011;54392;53.556;49.214;2022-08-01T18:20:47;4.90;;;4.40;;
67562;SDS011;54392;53.556;49.214;2022-08-01T18:23:13;7.95;;;5.03;;
67562;SDS011;54392;53.556;49.214;2022-08-01T18:25:41;10.38;;;5.03;;
67562;SDS011;54392;53.556;49.214;2022-08-01T18:28:08;6.97;;;4.87;;
67562;SDS011;54392;53.556;49.214;2022-08-01T18:30:36;4.78;;;4.35;;
67562;SDS011;54392;53.556;49.214;2022-08-01T18:33:08;5.75;;;3.28;;
67562;SDS011;54392;53.556;49.214;2022-08-01T18:35:39;2.95;;;2.65;;
67562;SDS011;54392;53.556;49.214;2022-08-01T18:38:13;6.65;;;4.30;;
67562;SDS011;54392;53.556;49.214;2022-08-01T18:40:39;4.90;;;3.62;;
67562;SDS011;54392;53.556;49.214;2022-08-01T18:43:18;6.15;;;4.20;;
67562;SDS011;54392;53.556;49.214;2022-08-01T18:45:52;4.72;;;3.97;;
67562;SDS011;54392;53.556;49.214;2022-08-01T18:48:18;3.70;;;3.30;;
67562;SDS011;54392;53.556;49.214;2022-08-01T18:50:47;5.78;;;3.75;;
67562;SDS011;54392;53.556;49.214;2022-08-01T18:53:16;8.23;;;4.28;;
67562;SDS011;54392;53.556;49.214;2022-08-01T18:55:45;6.65;;;4.05;;
67562;SDS011;54392;53.556;49.214;2022-08-01T18:58:12;7.47;;;3.37;;
67562;SDS011;54392;53.556;49.214;2022-08-01T19:00:38;8.10;;;3.37;;
67562;SDS011;54392;53.556;49.214;2022-08-01T19:03:10;3.17;;;2.95;;
67562;SDS011;54392;53.556;49.214;2022-08-01T19:05:38;3.00;;;2.58;;
67562;SDS011;54392;53.556;49.214;2022-08-01T19:08:04;6.20;;;4.45;;
67562;SDS011;54392;53.556;49.214;2022-08-01T19:10:30;13.38;;;4.12;;
67562;SDS011;54392;53.556;49.214;2022-08-01T19:12:57;6.57;;;4.25;;
67562;SDS011;54392;53.556;49.214;2022-08-01T19:15:29;4.35;;;3.70;;
67562;SDS011;54392;53.556;49.214;2022-08-01T19:17:58;4.68;;;3.53;;
67562;SDS011;54392;53.556;49.214;2022-08-01T19:20:34;4.37;;;2.87;;
67562;SDS011;54392;53.556;49.214;2022-08-01T19:23:07;4.05;;;3.62;;
67562;SDS011;54392;53.556;49.214;2022-08-01T19:25:55;4.32;;;3.65;;
67562;SDS011;54392;53.556;49.214;2022-08-01T19:28:23;9.35;;;3.40;;
67562;SDS011;54392;53.556;49.214;2022-08-01T19:30:53;4.93;;;3.55;;
67562;SDS011;54392;53.556;49.214;2022-08-01T19:33:22;4.78;;;3.28;;
67562;SDS011;54392;53.556;49.214;2022-08-01T19:35:51;7.50;;;3.58;;
67562;SDS011;54392;53.556;49.214;2022-08-01T19:38:23;4.12;;;3.62;;
67562;SDS011;54392;53.556;49.214;2022-08-01T19:40:58;5.93;;;2.97;;
67562;SDS011;54392;53.556;49.214;2022-08-01T19:43:24;4.30;;;3.28;;
67562;SDS011;54392;53.556;49.214;2022-08-01T19:45:51;5.85;;;3.33;;
67562;SDS011;54392;53.556;49.214;2022-08-01T19:48:22;5.35;;;3.75;;
67562;SDS011;54392;53.556;49.214;2022-08-01T19:50:53;4.75;;;3.58;;
67562;SDS011;54392;53.556;49.214;2022-08-01T19:53:20;3.17;;;2.90;;
67562;SDS011;54392;53.556;49.214;2022-08-01T19:55:48;3.97;;;3.12;;
67562;SDS011;54392;53.556;49.214;2022-08-01T19:58:21;3.90;;;3.50;;
67562;SDS011;54392;53.556;49.214;2022-08-01T20:00:53;10.75;;;3.05;;
67562;SDS011;54392;53.556;49.214;2022-08-01T20:03:30;4.22;;;3.83;;
67562;SDS011;54392;53.556;49.214;2022-08-01T20:06:03;4.53;;;3.08;;
67562;SDS011;54392;53.556;49.214;2022-08-01T20:08:35;5.85;;;3.80;;
67562;SDS011;54392;53.556;49.214;2022-08-01T20:11:03;3.20;;;2.92;;
67562;SDS011;54392;53.556;49.214;2022-08-01T20:13:32;2.33;;;2.12;;
67562;SDS011;54392;53.556;49.214;2022-08-01T20:16:08;5.15;;;3.42;;
67562;SDS011;54392;53.556;49.214;2022-08-01T20:18:38;6.70;;;5.00;;
67562;SDS011;54392;53.556;49.214;2022-08-01T20:21:11;6.65;;;4.30;;
67562;SDS011;54392;53.556;49.214;2022-08-01T20:23:43;3.42;;;3.12;;
67562;SDS011;54392;53.556;49.214;2022-08-01T20:26:21;6.20;;;2.85;;
67562;SDS011;54392;53.556;49.214;2022-08-01T20:28:54;4.62;;;3.40;;
67562;SDS011;54392;53.556;49.214;2022-08-01T20:31:21;3.17;;;2.90;;
67562;SDS011;54392;53.556;49.214;2022-08-01T20:33:53;13.07;;;5.65;;
67562;SDS011;54392;53.556;49.214;2022-08-01T20:36:23;3.85;;;3.03;;
67562;SDS011;54392;53.556;49.214;2022-08-01T20:38:53;6.78;;;3.37;;
67562;SDS011;54392;53.556;49.214;2022-08-01T20:41:24;8.00;;;4.57;;
67562;SDS011;54392;53.556;49.214;2022-08-01T20:43:51;8.00;;;3.50;;
67562;SDS011;54392;53.556;49.214;2022-08-01T20:46:24;6.87;;;2.85;;
67562;SDS011;54392;53.556;49.214;2022-08-01T20:48:55;3.33;;;2.92;;
67562;SDS011;54392;53.556;49.214;2022-08-01T20:51:26;3.97;;;3.65;;
67562;SDS011;54392;53.556;49.214;2022-08-01T20:54:01;5.00;;;3.55;;
67562;SDS011;54392;53.556;49.214;2022-08-01T20:56:44;4.05;;;3.28;;
67562;SDS011;54392;53.556;49.214;2022-08-01T21:02:13;5.00;;;4.03;;
67562;SDS011;54392;53.556;49.214;2022-08-01T21:04:57;7.78;;;3.62;;
67562;SDS011;54392;53.556;49.214;2022-08-01T21:07:46;3.15;;;2.95;;